createdAt,value
2017-07-07T00:01:15.130Z,20.31
2017-07-07T00:06:12.192Z,20.06
2017-07-07T00:11:09.373Z,20.06
2017-07-07T00:16:05.071Z,20.19
2017-07-07T00:21:00.936Z,20.39
2017-07-07T00:25:56.916Z,20.37
2017-07-07T00:30:53.157Z,20.50
2017-07-07T00:35:50.303Z,20.63
2017-07-07T00:40:46.301Z,20.55
2017-07-07T00:45:43.500Z,20.50
2017-07-07T00:50:39.811Z,20.32
2017-07-07T00:55:35.392Z,20.29
2017-07-07T01:00:32.319Z,20.28
2017-07-07T01:05:28.028Z,20.26
2017-07-07T01:10:23.785Z,20.16
2017-07-07T01:15:20.089Z,20.13
2017-07-07T01:20:16.923Z,20.00
2017-07-07T01:25:12.503Z,19.88
2017-07-07T01:30:09.320Z,19.95
2017-07-07T01:35:04.653Z,19.86
2017-07-07T01:40:00.607Z,19.89
2017-07-07T01:44:56.448Z,19.58
2017-07-07T01:49:53.354Z,19.74
2017-07-07T01:54:48.653Z,19.66
2017-07-07T01:59:46.448Z,19.58
2017-07-07T02:04:42.001Z,19.51
2017-07-07T02:09:38.030Z,19.52
2017-07-07T02:14:33.883Z,19.49
2017-07-07T02:19:30.737Z,19.44
2017-07-07T02:24:26.165Z,19.70
2017-07-07T02:29:23.017Z,19.58
2017-07-07T02:34:18.877Z,19.55
2017-07-07T02:39:14.836Z,19.64
2017-07-07T02:44:10.820Z,19.63
2017-07-07T02:49:07.333Z,19.69
2017-07-07T02:54:05.011Z,19.86
2017-07-07T02:59:00.672Z,19.71
2017-07-07T03:03:56.538Z,19.79
2017-07-07T03:08:54.100Z,19.70
2017-07-07T03:13:50.831Z,19.88
2017-07-07T03:18:47.469Z,19.67
2017-07-07T03:23:43.129Z,19.67
2017-07-07T03:28:38.937Z,19.86
2017-07-07T03:33:35.385Z,19.91
2017-07-07T03:38:31.322Z,19.85
2017-07-07T03:43:27.123Z,19.84
2017-07-07T03:48:24.382Z,19.99
2017-07-07T03:53:20.350Z,19.84
2017-07-07T03:58:16.520Z,19.62
2017-07-07T04:03:12.276Z,19.58
2017-07-07T04:08:08.436Z,19.56
2017-07-07T04:13:04.092Z,19.54
2017-07-07T04:18:00.005Z,19.63
2017-07-07T04:22:56.115Z,19.49
2017-07-07T04:27:51.602Z,19.63
2017-07-07T04:32:47.763Z,19.52
2017-07-07T04:37:43.908Z,19.64
2017-07-07T04:42:40.040Z,19.73
2017-07-07T04:47:36.554Z,20.69
2017-07-07T04:52:34.035Z,21.70
2017-07-07T04:57:31.740Z,22.76
2017-07-07T05:02:28.248Z,22.78
2017-07-07T05:07:24.825Z,23.05
2017-07-07T05:12:20.870Z,22.39
2017-07-07T05:17:17.410Z,22.94
2017-07-07T05:22:13.756Z,23.03
2017-07-07T05:27:10.455Z,22.32
2017-07-07T05:32:07.090Z,22.53
2017-07-07T05:37:04.205Z,22.33
2017-07-07T05:41:59.764Z,21.89
2017-07-07T05:46:55.719Z,21.75
2017-07-07T05:51:51.880Z,21.89
2017-07-07T05:56:47.935Z,21.62
2017-07-07T06:01:44.833Z,21.79
2017-07-07T06:06:41.350Z,22.02
2017-07-07T06:11:36.899Z,21.69
2017-07-07T06:16:34.056Z,21.67
2017-07-07T06:21:29.756Z,21.79
2017-07-07T06:26:25.861Z,21.99
2017-07-07T06:31:21.724Z,22.13
2017-07-07T06:36:18.645Z,22.00
2017-07-07T06:41:15.400Z,21.91
2017-07-07T06:46:10.767Z,22.17
2017-07-07T06:51:07.969Z,22.33
2017-07-07T06:56:03.856Z,22.53
2017-07-07T07:00:59.890Z,22.76
2017-07-07T07:05:55.806Z,22.78
2017-07-07T07:10:51.620Z,22.54
2017-07-07T07:15:47.316Z,22.75
2017-07-07T07:20:44.162Z,22.57
2017-07-07T07:25:41.465Z,22.81
2017-07-07T07:30:37.755Z,22.90
2017-07-07T07:35:33.982Z,22.99
2017-07-07T07:40:31.261Z,23.25
2017-07-07T07:45:28.109Z,23.40
2017-07-07T07:50:24.087Z,23.81
2017-07-07T07:55:20.693Z,24.20
2017-07-07T08:00:19.302Z,25.29
2017-07-07T08:05:18.493Z,26.23
2017-07-07T08:10:16.595Z,26.78
2017-07-07T08:15:13.944Z,27.00
2017-07-07T08:20:12.035Z,27.02
2017-07-07T08:25:08.584Z,27.17
2017-07-07T08:30:06.519Z,27.18
2017-07-07T08:35:02.740Z,27.25
2017-07-07T08:39:59.149Z,27.60
2017-07-07T08:44:55.885Z,28.15
2017-07-07T08:49:52.646Z,28.35
2017-07-07T08:54:49.428Z,28.42
2017-07-07T08:59:45.729Z,28.93
2017-07-07T09:04:41.675Z,29.13
2017-07-07T09:09:38.633Z,29.23
2017-07-07T09:14:35.073Z,29.31
2017-07-07T09:19:31.409Z,29.59
2017-07-07T09:24:29.876Z,29.47
2017-07-07T09:29:24.931Z,28.27
2017-07-07T09:34:19.362Z,28.35
2017-07-07T09:39:15.505Z,28.49
2017-07-07T09:44:11.900Z,28.33
2017-07-07T09:49:08.804Z,28.51
2017-07-07T09:54:04.753Z,28.23
2017-07-07T09:59:01.959Z,28.76
2017-07-07T10:03:58.883Z,29.04
2017-07-07T10:08:53.313Z,28.32
2017-07-07T10:13:47.353Z,27.92
2017-07-07T10:18:44.726Z,27.93
2017-07-07T10:23:40.315Z,27.54
2017-07-07T10:28:34.654Z,27.29
2017-07-07T10:33:31.225Z,27.30
2017-07-07T10:38:26.627Z,27.27
2017-07-07T10:43:24.829Z,27.27
2017-07-07T10:48:21.438Z,27.35
2017-07-07T10:53:19.515Z,27.47
2017-07-07T10:58:15.416Z,27.78
2017-07-07T11:03:12.715Z,28.32
2017-07-07T11:08:09.936Z,28.66
2017-07-07T11:13:07.868Z,28.64
2017-07-07T11:18:02.828Z,28.54
2017-07-07T11:22:58.271Z,28.44
2017-07-07T11:27:55.850Z,28.23
2017-07-07T11:32:51.862Z,28.67
2017-07-07T11:37:50.495Z,29.01
2017-07-07T11:42:48.005Z,29.56
2017-07-07T11:47:44.062Z,29.23
2017-07-07T11:52:41.892Z,29.49
2017-07-07T11:57:36.183Z,29.24
2017-07-07T12:02:29.412Z,28.72
2017-07-07T12:07:28.782Z,29.13
2017-07-07T12:12:26.956Z,29.51
2017-07-07T12:17:20.628Z,29.34
2017-07-07T12:22:13.298Z,28.64
2017-07-07T12:27:09.437Z,28.57
2017-07-07T12:32:06.816Z,28.84
2017-07-07T12:37:03.565Z,28.85
2017-07-07T12:41:59.220Z,28.57
2017-07-07T12:46:54.782Z,28.44
2017-07-07T12:51:49.737Z,28.42
2017-07-07T12:56:46.370Z,28.41
2017-07-07T13:01:41.765Z,28.52
2017-07-07T13:06:39.523Z,29.14
2017-07-07T13:11:37.406Z,29.53
2017-07-07T13:16:35.535Z,29.87
2017-07-07T13:21:30.254Z,29.50
2017-07-07T13:26:25.206Z,29.50
2017-07-07T13:31:22.276Z,29.45
2017-07-07T13:36:18.239Z,29.60
2017-07-07T13:41:14.246Z,29.54
2017-07-07T13:46:11.072Z,29.38
2017-07-07T13:51:06.432Z,28.81
2017-07-07T13:56:01.300Z,28.42
2017-07-07T14:00:58.578Z,28.45
2017-07-07T14:05:55.605Z,28.47
2017-07-07T14:10:52.435Z,28.59
2017-07-07T14:15:53.481Z,28.54
2017-07-07T14:20:49.861Z,28.49
2017-07-07T14:25:47.095Z,28.69
2017-07-07T14:30:42.483Z,28.66
2017-07-07T14:35:41.057Z,28.48
2017-07-07T14:40:37.069Z,28.29
2017-07-07T14:45:32.977Z,28.04
2017-07-07T14:50:28.770Z,27.90
2017-07-07T14:55:24.435Z,27.83
2017-07-07T15:00:21.325Z,27.73
2017-07-07T15:05:18.061Z,27.52
2017-07-07T15:10:13.631Z,27.32
2017-07-07T15:15:09.462Z,27.22
2017-07-07T15:20:05.350Z,27.27
2017-07-07T15:25:01.184Z,27.08
2017-07-07T15:29:57.129Z,27.14
2017-07-07T15:34:53.459Z,27.15
2017-07-07T15:39:50.512Z,27.02
2017-07-07T15:44:46.328Z,27.05
2017-07-07T15:49:43.471Z,27.17
2017-07-07T15:54:39.195Z,27.12
2017-07-07T15:59:36.127Z,27.05
2017-07-07T16:04:31.542Z,27.02
2017-07-07T16:09:27.605Z,26.84
2017-07-07T16:14:23.639Z,26.84
2017-07-07T16:19:19.654Z,26.75
2017-07-07T16:24:15.415Z,26.81
2017-07-07T16:29:12.254Z,26.62
2017-07-07T16:34:07.842Z,26.65
2017-07-07T16:39:04.732Z,26.55
2017-07-07T16:44:00.322Z,26.48
2017-07-07T16:48:57.230Z,26.34
2017-07-07T16:53:53.858Z,26.25
2017-07-07T16:58:50.396Z,26.23
2017-07-07T17:03:46.023Z,26.06
2017-07-07T17:08:42.952Z,26.05
2017-07-07T17:13:38.676Z,26.06
2017-07-07T17:18:34.302Z,26.02
2017-07-07T17:23:30.090Z,25.93
2017-07-07T17:28:27.187Z,26.05
2017-07-07T17:33:22.922Z,25.91
2017-07-07T17:38:19.857Z,25.93
2017-07-07T17:43:15.309Z,25.84
2017-07-07T17:48:11.153Z,25.66
2017-07-07T17:53:08.275Z,25.69
2017-07-07T17:58:03.862Z,25.65
2017-07-07T18:02:59.902Z,25.62
2017-07-07T18:07:55.620Z,25.62
2017-07-07T18:12:51.516Z,25.54
2017-07-07T18:17:47.749Z,25.50
2017-07-07T18:22:43.691Z,25.47
2017-07-07T18:27:39.452Z,25.35
2017-07-07T18:32:36.602Z,25.36
2017-07-07T18:37:32.283Z,25.25
2017-07-07T18:42:28.088Z,25.22
2017-07-07T18:47:24.946Z,25.14
2017-07-07T18:52:20.785Z,24.99
2017-07-07T18:57:17.613Z,24.96
2017-07-07T19:02:14.219Z,24.99
2017-07-07T19:07:09.680Z,24.95
2017-07-07T19:12:05.649Z,24.85
2017-07-07T19:17:01.494Z,24.73
2017-07-07T19:21:58.385Z,24.69
2017-07-07T19:26:55.343Z,24.51
2017-07-07T19:31:50.921Z,24.45
2017-07-07T19:36:46.857Z,24.40
2017-07-07T19:41:42.871Z,24.26
2017-07-07T19:46:38.789Z,24.16
2017-07-07T19:51:35.625Z,24.08
2017-07-07T19:56:32.553Z,23.99
2017-07-07T20:01:28.192Z,23.92
2017-07-07T20:06:24.015Z,23.78
2017-07-07T20:11:19.699Z,23.65
2017-07-07T20:16:15.444Z,23.48
2017-07-07T20:21:12.331Z,23.41
2017-07-07T20:26:08.808Z,23.27
2017-07-07T20:31:04.822Z,23.37
2017-07-07T20:36:00.995Z,23.20
2017-07-07T20:40:56.802Z,23.13
2017-07-07T20:45:52.501Z,22.98
2017-07-07T20:50:48.657Z,23.03
2017-07-07T20:55:44.327Z,22.84
2017-07-07T21:00:41.472Z,22.72
2017-07-07T21:05:37.051Z,22.85
2017-07-07T21:10:32.821Z,22.57
2017-07-07T21:15:29.853Z,22.59
2017-07-07T21:20:25.344Z,22.59
2017-07-07T21:25:21.073Z,22.57
2017-07-07T21:30:16.867Z,22.41
2017-07-07T21:35:12.727Z,22.35
2017-07-07T21:40:08.582Z,22.26
2017-07-07T21:45:04.396Z,22.14
2017-07-07T21:50:00.879Z,22.22
2017-07-07T21:54:57.339Z,22.22
2017-07-07T21:59:54.225Z,22.18
2017-07-07T22:04:51.095Z,22.00
2017-07-07T22:09:46.669Z,21.80
2017-07-07T22:14:42.894Z,21.93
2017-07-07T22:19:38.677Z,21.92
2017-07-07T22:24:34.759Z,22.00
2017-07-07T22:29:30.655Z,22.00
2017-07-07T22:34:26.707Z,21.92
2017-07-07T22:39:23.198Z,22.06
2017-07-07T22:44:20.181Z,21.89
2017-07-07T22:49:15.669Z,21.91
2017-07-07T22:54:12.777Z,21.82
2017-07-07T22:59:09.320Z,21.70
2017-07-07T23:04:05.209Z,21.62
2017-07-07T23:09:01.457Z,21.79
2017-07-07T23:13:57.230Z,21.73
2017-07-07T23:18:53.273Z,21.66
2017-07-07T23:23:50.008Z,21.33
2017-07-07T23:28:45.501Z,21.27
2017-07-07T23:33:41.177Z,21.30
2017-07-07T23:38:38.135Z,21.29
2017-07-07T23:43:33.572Z,21.22
2017-07-07T23:48:29.837Z,21.30
2017-07-07T23:53:25.692Z,21.18
2017-07-07T23:58:21.952Z,21.00
